createdAt,value
2023-03-13T00:00:42.750Z,22.62
2023-03-13T00:01:42.760Z,22.63
2023-03-13T00:02:42.797Z,22.62
2023-03-13T00:03:42.726Z,22.63
2023-03-13T00:04:42.818Z,22.63
2023-03-13T00:05:42.743Z,22.63
2023-03-13T00:09:20.558Z,22.44
2023-03-13T00:13:12.167Z,22.31
2023-03-13T00:19:11.003Z,22.39
2023-03-13T00:20:10.402Z,22.50
2023-03-13T00:22:29.874Z,22.52
2023-03-13T00:28:07.010Z,22.54
2023-03-13T00:29:06.840Z,22.61
2023-03-13T00:35:38.850Z,22.41
2023-03-13T00:41:15.697Z,22.68
2023-03-13T00:44:02.641Z,22.50
2023-03-13T00:46:18.684Z,22.65
2023-03-13T00:47:18.297Z,22.72
2023-03-13T00:48:18.348Z,22.76
2023-03-13T00:49:18.400Z,22.80
2023-03-13T00:51:37.036Z,22.76
2023-03-13T00:52:37.068Z,22.81
2023-03-13T00:53:37.206Z,22.84
2023-03-13T00:54:36.980Z,22.85
2023-03-13T00:55:36.976Z,22.86
2023-03-13T00:56:36.920Z,22.88
2023-03-13T00:57:36.864Z,22.89
2023-03-13T00:58:36.927Z,22.89
2023-03-13T00:59:36.903Z,22.90
2023-03-13T01:00:36.863Z,22.91
2023-03-13T01:01:36.879Z,22.91
2023-03-13T01:06:15.225Z,22.74
2023-03-13T01:07:15.028Z,22.85
2023-03-13T01:08:15.120Z,22.88
2023-03-13T01:09:15.071Z,22.90
2023-03-13T01:10:14.800Z,22.91
2023-03-13T01:11:14.849Z,22.92
2023-03-13T01:12:14.745Z,22.94
2023-03-13T01:13:14.717Z,22.94
2023-03-13T01:14:14.712Z,22.95
2023-03-13T01:15:14.747Z,22.96
2023-03-13T01:16:15.500Z,22.96
2023-03-13T01:17:14.662Z,22.97
2023-03-13T01:18:14.661Z,22.98
2023-03-13T01:19:14.690Z,22.98
2023-03-13T01:20:14.631Z,22.98
2023-03-13T01:21:14.632Z,22.99
2023-03-13T01:22:14.703Z,22.99
2023-03-13T01:23:14.705Z,23.00
2023-03-13T01:24:14.653Z,22.99
2023-03-13T01:25:14.638Z,23.00
2023-03-13T01:26:14.624Z,23.00
2023-03-13T01:27:14.642Z,23.01
2023-03-13T01:28:14.681Z,23.02
2023-03-13T01:31:19.267Z,22.75
2023-03-13T01:44:06.585Z,22.88
2023-03-13T01:52:09.367Z,22.87
2023-03-13T01:53:09.362Z,22.94
2023-03-13T01:54:09.229Z,22.97
2023-03-13T01:55:09.128Z,23.00
2023-03-13T01:56:09.216Z,23.02
2023-03-13T01:57:09.117Z,23.02
2023-03-13T01:58:09.143Z,23.03
2023-03-13T02:00:09.135Z,23.06
2023-03-13T02:01:09.098Z,23.05
2023-03-13T02:09:53.813Z,22.99
2023-03-13T02:31:57.413Z,22.91
2023-03-13T02:39:23.213Z,23.00
2023-03-13T02:40:22.644Z,23.04
2023-03-13T02:41:22.602Z,23.09
2023-03-13T02:42:22.467Z,23.10
2023-03-13T02:50:01.668Z,22.82
2023-03-13T02:59:55.655Z,22.98
2023-03-13T03:02:14.626Z,22.96
2023-03-13T03:03:15.354Z,23.08
2023-03-13T03:05:33.670Z,23.06
2023-03-13T03:06:33.532Z,23.11
2023-03-13T03:09:03.008Z,22.91
2023-03-13T03:10:02.931Z,23.08
2023-03-13T03:13:17.502Z,22.88
2023-03-13T03:14:18.312Z,23.05
2023-03-13T03:15:17.423Z,23.09
2023-03-13T03:16:17.568Z,23.13
2023-03-13T03:17:17.576Z,23.14
2023-03-13T03:21:56.576Z,23.09
2023-03-13T03:25:59.555Z,22.87
2023-03-13T03:26:59.561Z,23.05
2023-03-13T03:27:59.403Z,23.10
2023-03-13T03:28:59.709Z,23.14
2023-03-13T03:29:59.461Z,23.17
2023-03-13T03:30:59.502Z,23.18
2023-03-13T03:31:59.487Z,23.20
2023-03-13T03:32:59.441Z,23.20
2023-03-13T03:33:59.435Z,23.21
2023-03-13T03:34:59.396Z,23.22
2023-03-13T03:35:59.576Z,23.22
2023-03-13T03:36:59.375Z,23.24
2023-03-13T03:37:59.358Z,23.23
2023-03-13T03:38:59.443Z,23.24
2023-03-13T03:39:59.377Z,23.24
2023-03-13T03:40:59.333Z,23.24
2023-03-13T03:41:59.277Z,23.24
2023-03-13T03:42:59.363Z,23.24
2023-03-13T03:43:59.384Z,23.25
2023-03-13T03:44:59.317Z,23.25
2023-03-13T03:45:59.379Z,23.26
2023-03-13T03:46:59.325Z,23.26
2023-03-13T03:47:59.258Z,23.27
2023-03-13T03:48:59.271Z,23.27
2023-03-13T03:49:59.335Z,23.26
2023-03-13T03:50:59.254Z,23.27
2023-03-13T03:51:59.426Z,23.27
2023-03-13T03:52:59.231Z,23.28
2023-03-13T03:53:59.267Z,23.27
2023-03-13T03:54:59.242Z,23.29
2023-03-13T03:55:59.249Z,23.29
2023-03-13T03:56:59.189Z,23.29
2023-03-13T03:57:59.198Z,23.29
2023-03-13T03:58:59.220Z,23.29
2023-03-13T03:59:59.181Z,23.29
2023-03-13T04:00:59.198Z,23.29
2023-03-13T04:01:59.217Z,23.30
2023-03-13T04:02:59.194Z,23.30
2023-03-13T04:03:59.238Z,23.30
2023-03-13T04:05:59.202Z,23.30
2023-03-13T04:06:59.286Z,23.30
2023-03-13T04:07:59.268Z,23.30
2023-03-13T04:08:59.317Z,23.30
2023-03-13T04:09:59.560Z,23.31
2023-03-13T04:10:59.415Z,23.31
2023-03-13T04:11:59.509Z,23.31
2023-03-13T04:14:24.028Z,23.06
2023-03-13T04:16:42.858Z,23.22
2023-03-13T04:17:42.766Z,23.25
2023-03-13T04:20:01.740Z,23.15
2023-03-13T04:21:01.780Z,23.22
2023-03-13T04:23:54.111Z,23.00
2023-03-13T04:27:57.489Z,22.93
2023-03-13T04:30:18.229Z,23.15
2023-03-13T04:32:34.208Z,23.13
2023-03-13T04:34:53.610Z,23.12
2023-03-13T04:39:05.330Z,23.09
2023-03-13T04:40:04.966Z,23.16
2023-03-13T04:43:57.211Z,22.91
2023-03-13T04:46:15.686Z,23.10
2023-03-13T04:47:16.473Z,23.14
2023-03-13T04:51:53.693Z,23.10
2023-03-13T04:52:53.290Z,23.16
2023-03-13T04:55:12.317Z,23.12
2023-03-13T04:56:11.867Z,23.15
2023-03-13T04:57:12.027Z,23.17
2023-03-13T04:58:12.087Z,23.17
2023-03-13T04:59:11.909Z,23.18
2023-03-13T05:00:11.953Z,23.17
2023-03-13T05:01:11.823Z,23.18
2023-03-13T05:02:11.752Z,23.18
2023-03-13T05:03:11.747Z,23.18
2023-03-13T05:04:11.764Z,23.18
2023-03-13T05:05:11.812Z,23.18
2023-03-13T05:06:11.720Z,23.18
2023-03-13T05:07:11.712Z,23.18
2023-03-13T05:08:11.781Z,23.18
2023-03-13T05:09:11.787Z,23.18
2023-03-13T05:10:11.731Z,23.17
2023-03-13T05:37:08.751Z,23.07
2023-03-13T05:38:08.543Z,23.08
2023-03-13T05:39:08.689Z,23.09
2023-03-13T05:40:08.325Z,23.09
2023-03-13T05:41:08.307Z,23.09
2023-03-13T05:42:08.296Z,23.09
2023-03-13T05:43:08.274Z,23.10
2023-03-13T05:44:08.350Z,23.10
2023-03-13T05:45:08.298Z,23.10
2023-03-13T05:46:08.308Z,23.11
2023-03-13T05:47:08.252Z,23.11
2023-03-13T05:48:08.288Z,23.12
2023-03-13T05:49:08.229Z,23.13
2023-03-13T05:50:08.390Z,23.13
2023-03-13T05:51:08.215Z,23.14
2023-03-13T05:52:08.253Z,23.15
2023-03-13T05:53:08.203Z,23.15
2023-03-13T05:54:08.269Z,23.17
2023-03-13T05:55:08.245Z,23.17
2023-03-13T05:56:08.170Z,23.15
2023-03-13T05:57:08.163Z,23.05
2023-03-13T05:58:08.162Z,22.84
2023-03-13T06:05:08.188Z,21.71
2023-03-13T06:06:08.243Z,21.64
2023-03-13T06:07:08.132Z,21.58
2023-03-13T06:51:26.324Z,16.01
2023-03-13T06:52:20.319Z,16.17
2023-03-13T07:09:18.659Z,15.48
2023-03-13T07:10:18.351Z,15.67
2023-03-13T07:11:18.416Z,15.73
2023-03-13T07:38:24.078Z,21.05
2023-03-13T07:39:24.436Z,21.09
2023-03-13T07:40:24.199Z,20.98
2023-03-13T07:41:24.328Z,20.54
2023-03-13T07:42:24.243Z,20.15
2023-03-13T07:43:24.333Z,19.88
2023-03-13T07:44:24.346Z,19.54
2023-03-13T07:45:24.453Z,19.49
2023-03-13T07:46:24.492Z,19.61
2023-03-13T07:49:24.480Z,20.10
2023-03-13T07:50:24.637Z,20.27
2023-03-13T07:51:36.886Z,20.41
2023-03-13T07:52:25.608Z,20.53
2023-03-13T07:53:24.619Z,20.67
2023-03-13T07:54:24.577Z,20.79
2023-03-13T07:55:24.586Z,20.93
2023-03-13T07:56:24.545Z,21.06
2023-03-13T07:57:24.583Z,21.18
2023-03-13T07:58:24.635Z,21.26
2023-03-13T07:59:24.524Z,21.36
2023-03-13T08:00:24.518Z,21.43
2023-03-13T08:01:26.510Z,21.50
2023-03-13T08:02:24.575Z,21.55
2023-03-13T08:03:24.610Z,21.60
2023-03-13T08:04:24.515Z,21.64
2023-03-13T08:05:24.484Z,21.68
2023-03-13T08:06:24.480Z,21.71
2023-03-13T08:07:24.481Z,21.73
2023-03-13T08:08:24.568Z,21.75
2023-03-13T08:09:24.660Z,21.77
2023-03-13T08:10:24.467Z,21.79
2023-03-13T08:11:24.458Z,21.80
2023-03-13T08:12:24.416Z,21.82
2023-03-13T08:13:24.409Z,21.83
2023-03-13T08:14:24.495Z,21.85
2023-03-13T08:15:24.527Z,21.88
2023-03-13T08:16:24.507Z,21.92
2023-03-13T08:17:24.402Z,21.93
2023-03-13T08:18:24.376Z,21.96
2023-03-13T08:19:24.528Z,21.98
2023-03-13T08:20:24.390Z,21.98
2023-03-13T08:21:24.471Z,22.00
2023-03-13T08:22:24.760Z,22.02
2023-03-13T08:24:24.371Z,22.04
2023-03-13T08:25:24.373Z,22.05
2023-03-13T08:26:24.367Z,22.06
2023-03-13T08:32:44.506Z,22.04
2023-03-13T08:33:44.488Z,22.10
2023-03-13T08:34:43.776Z,22.13
2023-03-13T08:35:44.706Z,22.12
2023-03-13T08:36:43.826Z,22.14
2023-03-13T08:37:43.765Z,22.18
2023-03-13T08:40:36.125Z,21.94
2023-03-13T08:41:35.622Z,22.15
2023-03-13T08:42:35.364Z,22.20
2023-03-13T08:43:35.472Z,22.27
2023-03-13T08:44:35.477Z,22.29
2023-03-13T08:45:35.475Z,22.30
2023-03-13T08:47:36.076Z,22.28
2023-03-13T08:48:35.616Z,22.28
2023-03-13T08:49:35.515Z,22.27
2023-03-13T08:59:35.375Z,22.22
2023-03-13T09:00:35.190Z,22.26
2023-03-13T09:01:35.185Z,22.28
2023-03-13T09:02:35.174Z,22.29
2023-03-13T09:03:35.518Z,22.30
2023-03-13T09:04:35.100Z,22.31
2023-03-13T09:05:52.995Z,22.32
2023-03-13T09:06:36.111Z,22.33
2023-03-13T09:07:35.142Z,22.33
2023-03-13T09:08:35.136Z,22.33
2023-03-13T09:09:35.237Z,22.35
2023-03-13T09:10:35.184Z,22.36
2023-03-13T09:11:35.219Z,22.36
2023-03-13T09:12:35.197Z,22.36
2023-03-13T09:13:35.133Z,22.37
2023-03-13T09:14:36.725Z,22.39
2023-03-13T09:15:35.256Z,22.41
2023-03-13T09:16:35.214Z,22.42
2023-03-13T09:17:35.163Z,22.43
2023-03-13T09:18:35.116Z,22.45
2023-03-13T09:19:35.145Z,22.46
2023-03-13T09:20:35.124Z,22.48
2023-03-13T09:21:35.072Z,22.48
2023-03-13T09:22:35.135Z,22.50
2023-03-13T09:23:35.150Z,22.51
2023-03-13T09:24:35.094Z,22.52
2023-03-13T09:25:35.117Z,22.53
2023-03-13T09:26:35.131Z,22.53
2023-03-13T09:27:35.160Z,22.54
2023-03-13T09:28:35.250Z,22.55
2023-03-13T09:29:35.167Z,22.56
2023-03-13T09:30:35.191Z,22.58
2023-03-13T09:31:35.537Z,22.58
2023-03-13T09:32:35.329Z,22.61
2023-03-13T09:33:35.400Z,22.61
2023-03-13T09:34:35.391Z,22.63
2023-03-13T09:35:35.422Z,22.65
2023-03-13T09:36:35.396Z,22.65
2023-03-13T09:37:36.418Z,22.67
2023-03-13T09:38:35.974Z,22.71
2023-03-13T09:39:35.631Z,22.74
2023-03-13T09:40:35.955Z,22.76
2023-03-13T09:41:37.392Z,22.75
2023-03-13T09:42:35.691Z,22.74
2023-03-13T09:43:35.799Z,22.72
2023-03-13T10:42:10.767Z,22.47
2023-03-13T10:44:26.072Z,22.56
2023-03-13T10:45:25.791Z,22.51
2023-03-13T10:46:28.289Z,22.46
2023-03-13T10:58:22.244Z,22.44
2023-03-13T11:39:24.006Z,22.54
2023-03-13T11:41:42.374Z,22.88
2023-03-13T14:44:24.908Z,22.88
2023-03-13T14:46:43.408Z,22.96
2023-03-13T14:47:43.868Z,23.01
2023-03-13T14:50:02.207Z,22.94
2023-03-13T14:51:14.274Z,23.00
2023-03-13T14:52:03.234Z,23.02
2023-03-13T14:53:02.957Z,23.04
2023-03-13T14:54:02.017Z,23.06
2023-03-13T14:55:02.041Z,23.06
2023-03-13T14:56:02.267Z,23.07
2023-03-13T14:57:02.165Z,23.09
2023-03-13T14:58:02.167Z,23.09
2023-03-13T14:59:02.167Z,23.10
2023-03-13T15:00:03.285Z,23.10
2023-03-13T15:01:02.213Z,23.11
2023-03-13T15:02:02.327Z,23.12
2023-03-13T15:03:02.499Z,23.13
2023-03-13T15:04:03.625Z,23.13
2023-03-13T15:05:02.614Z,23.12
2023-03-13T15:06:02.445Z,23.13
2023-03-13T15:07:02.436Z,23.13
2023-03-13T15:08:02.548Z,23.13
2023-03-13T15:09:04.004Z,23.14
2023-03-13T15:10:03.775Z,23.12
2023-03-13T15:11:03.167Z,23.12
2023-03-13T15:12:04.059Z,23.10
2023-03-13T15:13:04.049Z,23.10
2023-03-13T15:14:03.114Z,23.10
2023-03-13T15:15:03.285Z,23.10
2023-03-13T15:16:04.059Z,23.11
2023-03-13T15:17:03.071Z,23.12
2023-03-13T15:20:22.310Z,23.09
2023-03-13T15:21:22.388Z,23.17
2023-03-13T15:22:23.402Z,23.18
2023-03-13T15:23:23.131Z,23.14
2023-03-13T15:24:22.011Z,23.05
2023-03-13T15:25:23.504Z,23.01
2023-03-13T15:26:22.136Z,22.98
2023-03-13T15:27:23.104Z,22.95
2023-03-13T15:28:22.092Z,22.94
2023-03-13T15:29:23.048Z,22.91
2023-03-13T16:43:41.922Z,23.18
2023-03-13T16:46:43.319Z,23.18
2023-03-13T16:47:41.707Z,23.18
2023-03-13T16:48:42.077Z,23.19
2023-03-13T16:49:41.855Z,23.18
2023-03-13T16:51:41.865Z,23.20
2023-03-13T16:53:41.953Z,23.21
2023-03-13T16:57:41.997Z,23.24
2023-03-13T17:10:42.046Z,23.28
2023-03-13T17:11:41.826Z,23.26
2023-03-13T17:12:42.916Z,23.26
2023-03-13T17:13:41.925Z,23.26
2023-03-13T17:34:20.287Z,22.79
2023-03-13T17:35:20.278Z,23.00
2023-03-13T17:36:20.129Z,23.07
2023-03-13T17:37:20.185Z,23.10
2023-03-13T17:38:20.398Z,23.13
2023-03-13T17:44:26.357Z,22.84
2023-03-13T17:47:24.776Z,22.83
2023-03-13T17:55:05.740Z,22.81
2023-03-13T17:58:24.606Z,22.89
2023-03-13T19:01:18.438Z,23.13
2023-03-13T19:02:18.321Z,23.15
2023-03-13T19:03:18.445Z,23.17
2023-03-13T19:04:18.267Z,23.17
2023-03-13T19:05:18.162Z,23.17
2023-03-13T19:06:18.196Z,23.17
2023-03-13T19:18:15.536Z,23.06
2023-03-13T19:20:34.073Z,23.06
2023-03-13T19:21:34.688Z,23.11
2023-03-13T19:22:33.714Z,23.14
2023-03-13T19:23:34.781Z,23.15
2023-03-13T19:24:33.690Z,23.16
2023-03-13T19:25:33.705Z,23.16
2023-03-13T19:26:34.984Z,23.16
2023-03-13T19:27:33.803Z,23.16
2023-03-13T19:28:33.897Z,23.16
2023-03-13T19:29:35.052Z,23.16
2023-03-13T19:30:33.936Z,23.16
2023-03-13T19:31:34.523Z,23.16
2023-03-13T19:32:35.683Z,23.16
2023-03-13T19:34:53.088Z,23.08
2023-03-13T19:35:53.222Z,23.12
2023-03-13T19:36:53.089Z,23.13
2023-03-13T19:37:53.125Z,23.13
2023-03-13T19:38:52.854Z,23.13
2023-03-13T19:39:52.825Z,23.14
2023-03-13T19:40:52.874Z,23.14
2023-03-13T19:41:52.854Z,23.14
2023-03-13T19:42:52.885Z,23.14
2023-03-13T19:43:53.004Z,23.14
2023-03-13T19:44:52.801Z,23.14
2023-03-13T19:45:52.848Z,23.14
2023-03-13T19:46:52.792Z,23.14
2023-03-13T19:47:52.914Z,23.14
2023-03-13T19:50:12.494Z,23.03
2023-03-13T19:52:31.073Z,22.95
2023-03-13T19:53:31.529Z,23.05
2023-03-13T19:54:30.893Z,23.07
2023-03-13T21:57:28.638Z,22.94
2023-03-13T21:58:28.289Z,22.98
2023-03-13T21:59:28.560Z,23.01
2023-03-13T22:00:28.202Z,23.02
2023-03-13T22:01:28.284Z,23.03
2023-03-13T22:02:28.027Z,23.04
2023-03-13T22:03:28.233Z,23.06
2023-03-13T22:04:28.116Z,23.07
2023-03-13T22:05:28.006Z,23.07
2023-03-13T22:06:28.140Z,23.07
2023-03-13T22:07:28.156Z,23.08
2023-03-13T22:08:29.258Z,23.08
2023-03-13T22:09:28.204Z,23.09
2023-03-13T22:10:28.272Z,23.10
2023-03-13T22:11:28.519Z,23.10
2023-03-13T22:12:29.412Z,23.10
2023-03-13T22:13:28.415Z,23.10
2023-03-13T22:14:28.523Z,23.09
2023-03-13T22:15:28.604Z,23.09
2023-03-13T22:16:28.547Z,23.09
2023-03-13T22:17:28.629Z,23.10
2023-03-13T22:18:28.891Z,23.10
2023-03-13T22:19:28.663Z,23.10
2023-03-13T22:22:36.794Z,22.82
2023-03-13T22:27:40.337Z,22.80
2023-03-13T22:28:40.283Z,22.98
2023-03-13T22:38:06.494Z,22.78
2023-03-13T22:41:05.529Z,22.75
2023-03-13T22:42:05.369Z,22.93
2023-03-13T22:46:14.865Z,22.71
2023-03-13T22:52:04.673Z,22.93
2023-03-13T22:53:04.558Z,22.98
2023-03-13T22:54:04.457Z,23.00
2023-03-13T22:55:04.368Z,23.01
2023-03-13T22:56:04.349Z,23.02
2023-03-13T22:57:04.360Z,23.02
2023-03-13T22:58:04.409Z,23.03
2023-03-13T22:59:04.321Z,23.02
2023-03-13T23:01:33.974Z,22.77
2023-03-13T23:03:53.155Z,22.91
2023-03-13T23:23:25.944Z,22.77
2023-03-13T23:27:05.209Z,22.71
2023-03-13T23:28:05.114Z,22.90
2023-03-13T23:29:04.907Z,22.94
2023-03-13T23:30:05.150Z,22.98
2023-03-13T23:31:05.088Z,23.00
2023-03-13T23:33:38.583Z,22.77
2023-03-13T23:36:07.129Z,22.76
2023-03-13T23:38:24.117Z,22.88
2023-03-13T23:39:27.049Z,22.95
2023-03-13T23:40:23.924Z,22.98
2023-03-13T23:41:27.747Z,23.00
